sensor_id;sensor_type;location;lat;lon;timestamp;pressure;altitude;pressure_sealevel;temperature;humidity
24302;BME280;12421;49.732;20.078;2023-02-21T00:04:42;96184.60;;;8.91;65.17
24302;BME280;12421;49.732;20.078;2023-02-21T00:15:05;96177.98;;;8.88;65.08
24302;BME280;12421;49.732;20.078;2023-02-21T00:25:27;96180.09;;;8.89;65.27
24302;BME280;12421;49.732;20.078;2023-02-21T00:35:49;96170.73;;;8.83;65.42
24302;BME280;12421;49.732;20.078;2023-02-21T00:46:13;96159.06;;;8.79;65.57
24302;BME280;12421;49.732;20.078;2023-02-21T00:56:35;96152.52;;;8.84;65.49
24302;BME280;12421;49.732;20.078;2023-02-21T01:06:58;96148.31;;;8.84;65.39
24302;BME280;12421;49.732;20.078;2023-02-21T01:17:20;96145.21;;;8.81;65.49
24302;BME280;12421;49.732;20.078;2023-02-21T01:27:42;96153.67;;;8.77;65.54
24302;BME280;12421;49.732;20.078;2023-02-21T01:38:04;96139.89;;;8.74;65.73
24302;BME280;12421;49.732;20.078;2023-02-21T01:48:27;96135.83;;;8.76;65.60
24302;BME280;12421;49.732;20.078;2023-02-21T01:58:53;96120.48;;;8.73;65.65
24302;BME280;12421;49.732;20.078;2023-02-21T02:09:20;96110.12;;;8.76;65.88
24302;BME280;12421;49.732;20.078;2023-02-21T02:41:27;96095.14;;;8.71;66.72
24302;BME280;12421;49.732;20.078;2023-02-21T02:51:36;96088.09;;;8.65;67.13
24302;BME280;12421;49.732;20.078;2023-02-21T03:02:07;96088.91;;;8.57;67.79
24302;BME280;12421;49.732;20.078;2023-02-21T03:22:22;96092.69;;;8.51;68.55
24302;BME280;12421;49.732;20.078;2023-02-21T03:32:46;96089.04;;;8.50;68.97
24302;BME280;12421;49.732;20.078;2023-02-21T03:42:53;96090.23;;;8.53;69.06
24302;BME280;12421;49.732;20.078;2023-02-21T03:52:59;96086.45;;;8.58;69.32
24302;BME280;12421;49.732;20.078;2023-02-21T04:03:03;96082.43;;;8.58;69.31
24302;BME280;12421;49.732;20.078;2023-02-21T04:13:13;96086.16;;;8.65;69.22
24302;BME280;12421;49.732;20.078;2023-02-21T04:23:21;96095.96;;;8.65;69.41
24302;BME280;12421;49.732;20.078;2023-02-21T04:33:25;96081.45;;;8.64;69.58
24302;BME280;12421;49.732;20.078;2023-02-21T04:43:29;96082.57;;;8.60;69.71
24302;BME280;12421;49.732;20.078;2023-02-21T04:53:32;96081.83;;;8.52;69.98
24302;BME280;12421;49.732;20.078;2023-02-21T05:03:36;96086.46;;;8.57;69.97
24302;BME280;12421;49.732;20.078;2023-02-21T05:13:41;96098.39;;;8.56;69.99
24302;BME280;12421;49.732;20.078;2023-02-21T05:23:45;96106.86;;;8.51;70.20
24302;BME280;12421;49.732;20.078;2023-02-21T05:33:58;96119.44;;;8.53;70.85
24302;BME280;12421;49.732;20.078;2023-02-21T05:44:02;96114.38;;;8.51;71.20
24302;BME280;12421;49.732;20.078;2023-02-21T05:54:07;96111.24;;;8.51;72.00
24302;BME280;12421;49.732;20.078;2023-02-21T06:04:12;96104.14;;;8.47;72.65
24302;BME280;12421;49.732;20.078;2023-02-21T06:14:18;96109.05;;;8.45;72.96
24302;BME280;12421;49.732;20.078;2023-02-21T06:24:23;96120.18;;;8.38;73.53
24302;BME280;12421;49.732;20.078;2023-02-21T06:34:27;96136.51;;;8.34;74.31
24302;BME280;12421;49.732;20.078;2023-02-21T06:44:31;96152.17;;;8.26;75.00
24302;BME280;12421;49.732;20.078;2023-02-21T06:54:35;96154.70;;;8.19;75.80
24302;BME280;12421;49.732;20.078;2023-02-21T07:04:39;96162.97;;;8.15;76.29
24302;BME280;12421;49.732;20.078;2023-02-21T07:14:43;96163.52;;;8.13;76.96
24302;BME280;12421;49.732;20.078;2023-02-21T07:24:46;96166.48;;;8.15;76.85
24302;BME280;12421;49.732;20.078;2023-02-21T07:34:50;96185.84;;;8.18;77.01
24302;BME280;12421;49.732;20.078;2023-02-21T07:44:57;96197.29;;;8.26;78.10
24302;BME280;12421;49.732;20.078;2023-02-21T07:55:01;96194.90;;;8.47;78.20
24302;BME280;12421;49.732;20.078;2023-02-21T08:05:06;96202.00;;;8.65;77.79
24302;BME280;12421;49.732;20.078;2023-02-21T08:15:11;96199.72;;;9.17;75.89
24302;BME280;12421;49.732;20.078;2023-02-21T08:25:15;96203.52;;;9.59;74.23
24302;BME280;12421;49.732;20.078;2023-02-21T08:35:21;96203.36;;;9.86;72.88
24302;BME280;12421;49.732;20.078;2023-02-21T08:45:26;96224.40;;;10.12;72.08
24302;BME280;12421;49.732;20.078;2023-02-21T08:55:30;96230.70;;;10.22;71.07
24302;BME280;12421;49.732;20.078;2023-02-21T09:05:34;96240.41;;;10.27;69.82
24302;BME280;12421;49.732;20.078;2023-02-21T09:15:38;96247.31;;;10.15;69.87
24302;BME280;12421;49.732;20.078;2023-02-21T09:25:42;96271.34;;;9.97;71.09
24302;BME280;12421;49.732;20.078;2023-02-21T09:35:45;96278.27;;;9.93;71.17
24302;BME280;12421;49.732;20.078;2023-02-21T09:45:53;96282.40;;;10.05;70.47
24302;BME280;12421;49.732;20.078;2023-02-21T09:56:06;96285.98;;;10.12;69.99
24302;BME280;12421;49.732;20.078;2023-02-21T10:06:23;96282.09;;;10.22;69.28
24302;BME280;12421;49.732;20.078;2023-02-21T10:16:41;96280.55;;;10.62;68.70
24302;BME280;12421;49.732;20.078;2023-02-21T10:37:02;96295.42;;;11.34;66.41
24302;BME280;12421;49.732;20.078;2023-02-21T10:47:17;96318.41;;;10.89;67.00
24302;BME280;12421;49.732;20.078;2023-02-21T10:57:22;96319.98;;;10.49;69.72
24302;BME280;12421;49.732;20.078;2023-02-21T11:07:26;96303.91;;;10.70;70.70
24302;BME280;12421;49.732;20.078;2023-02-21T11:17:31;96294.42;;;11.09;69.76
24302;BME280;12421;49.732;20.078;2023-02-21T11:27:35;96283.84;;;11.33;68.91
24302;BME280;12421;49.732;20.078;2023-02-21T11:37:48;96290.16;;;11.48;68.42
24302;BME280;12421;49.732;20.078;2023-02-21T11:48:03;96301.39;;;11.56;67.36
24302;BME280;12421;49.732;20.078;2023-02-21T11:58:53;96297.84;;;11.29;68.15
24302;BME280;12421;49.732;20.078;2023-02-21T12:51:13;96290.02;;;10.54;68.68
24302;BME280;12421;49.732;20.078;2023-02-21T13:01:24;96294.39;;;10.72;69.06
24302;BME280;12421;49.732;20.078;2023-02-21T13:12:03;96297.98;;;10.83;68.44
24302;BME280;12421;49.732;20.078;2023-02-21T13:22:19;96300.45;;;10.91;67.69
24302;BME280;12421;49.732;20.078;2023-02-21T13:33:04;96309.04;;;11.00;66.53
24302;BME280;12421;49.732;20.078;2023-02-21T13:43:18;96318.04;;;11.05;66.97
24302;BME280;12421;49.732;20.078;2023-02-21T13:53:32;96327.67;;;11.15;65.95
24302;BME280;12421;49.732;20.078;2023-02-21T14:03:37;96320.84;;;10.98;65.83
24302;BME280;12421;49.732;20.078;2023-02-21T14:13:48;96352.36;;;10.61;67.09
24302;BME280;12421;49.732;20.078;2023-02-21T14:24:12;96368.20;;;10.13;69.16
24302;BME280;12421;49.732;20.078;2023-02-21T14:55:30;96373.80;;;9.51;69.92
24302;BME280;12421;49.732;20.078;2023-02-21T15:05:43;96373.75;;;9.43;70.10
24302;BME280;12421;49.732;20.078;2023-02-21T15:16:17;96383.15;;;9.25;71.85
24302;BME280;12421;49.732;20.078;2023-02-21T15:26:27;96390.75;;;9.07;73.65
24302;BME280;12421;49.732;20.078;2023-02-21T15:36:33;96400.30;;;8.86;74.47
24302;BME280;12421;49.732;20.078;2023-02-21T15:57:45;96398.79;;;8.69;74.30
24302;BME280;12421;49.732;20.078;2023-02-21T16:07:44;96402.08;;;8.71;74.57
24302;BME280;12421;49.732;20.078;2023-02-21T16:17:59;96414.23;;;8.64;74.60
24302;BME280;12421;49.732;20.078;2023-02-21T16:28:11;96429.55;;;8.55;74.68
24302;BME280;12421;49.732;20.078;2023-02-21T16:38:19;96440.70;;;8.43;75.07
24302;BME280;12421;49.732;20.078;2023-02-21T16:48:28;96446.33;;;8.39;75.23
24302;BME280;12421;49.732;20.078;2023-02-21T16:58:40;96446.02;;;8.36;75.32
24302;BME280;12421;49.732;20.078;2023-02-21T17:08:48;96455.57;;;8.22;75.27
24302;BME280;12421;49.732;20.078;2023-02-21T17:18:53;96468.36;;;8.22;75.26
24302;BME280;12421;49.732;20.078;2023-02-21T17:28:57;96482.49;;;8.21;75.26
24302;BME280;12421;49.732;20.078;2023-02-21T17:39:02;96487.92;;;8.23;74.80
24302;BME280;12421;49.732;20.078;2023-02-21T17:49:10;96495.09;;;8.26;74.67
24302;BME280;12421;49.732;20.078;2023-02-21T17:59:17;96500.11;;;8.30;74.37
24302;BME280;12421;49.732;20.078;2023-02-21T18:09:22;96496.96;;;8.31;74.34
24302;BME280;12421;49.732;20.078;2023-02-21T18:19:27;96501.37;;;8.27;74.68
24302;BME280;12421;49.732;20.078;2023-02-21T18:29:32;96497.88;;;8.27;74.95
24302;BME280;12421;49.732;20.078;2023-02-21T18:39:39;96509.90;;;8.31;75.22
24302;BME280;12421;49.732;20.078;2023-02-21T18:49:47;96517.59;;;8.32;75.20
24302;BME280;12421;49.732;20.078;2023-02-21T18:59:57;96514.33;;;8.25;75.75
24302;BME280;12421;49.732;20.078;2023-02-21T19:10:03;96522.55;;;8.20;75.72
24302;BME280;12421;49.732;20.078;2023-02-21T19:20:11;96531.67;;;8.15;75.43
24302;BME280;12421;49.732;20.078;2023-02-21T19:30:18;96534.65;;;8.18;75.40
24302;BME280;12421;49.732;20.078;2023-02-21T19:40:24;96546.69;;;8.23;74.97
24302;BME280;12421;49.732;20.078;2023-02-21T19:50:31;96561.02;;;8.21;75.61
24302;BME280;12421;49.732;20.078;2023-02-21T20:00:39;96575.11;;;8.07;76.92
24302;BME280;12421;49.732;20.078;2023-02-21T20:10:49;96584.07;;;8.00;77.85
24302;BME280;12421;49.732;20.078;2023-02-21T20:20:56;96598.96;;;7.96;78.39
24302;BME280;12421;49.732;20.078;2023-02-21T20:31:05;96611.71;;;7.95;78.63
24302;BME280;12421;49.732;20.078;2023-02-21T20:41:14;96620.52;;;7.82;79.30
24302;BME280;12421;49.732;20.078;2023-02-21T20:51:32;96643.29;;;7.73;79.27
24302;BME280;12421;49.732;20.078;2023-02-21T21:01:43;96655.86;;;7.72;78.87
24302;BME280;12421;49.732;20.078;2023-02-21T21:11:55;96672.52;;;7.54;78.99
24302;BME280;12421;49.732;20.078;2023-02-21T21:22:07;96697.04;;;7.32;78.94
24302;BME280;12421;49.732;20.078;2023-02-21T21:32:16;96690.96;;;7.16;77.00
24302;BME280;12421;49.732;20.078;2023-02-21T21:42:25;96697.27;;;6.96;77.52
24302;BME280;12421;49.732;20.078;2023-02-21T21:52:31;96707.56;;;6.73;78.12
24302;BME280;12421;49.732;20.078;2023-02-21T22:02:36;96709.29;;;6.67;78.50
24302;BME280;12421;49.732;20.078;2023-02-21T22:12:41;96713.48;;;6.55;78.39
24302;BME280;12421;49.732;20.078;2023-02-21T22:22:50;96721.64;;;6.29;78.62
24302;BME280;12421;49.732;20.078;2023-02-21T22:32:54;96721.73;;;6.06;78.65
24302;BME280;12421;49.732;20.078;2023-02-21T22:42:59;96728.67;;;5.93;78.79
24302;BME280;12421;49.732;20.078;2023-02-21T22:53:05;96733.19;;;5.92;78.75
24302;BME280;12421;49.732;20.078;2023-02-21T23:03:10;96745.84;;;5.80;78.53
24302;BME280;12421;49.732;20.078;2023-02-21T23:13:19;96751.95;;;5.55;79.02
24302;BME280;12421;49.732;20.078;2023-02-21T23:23:27;96759.17;;;5.39;79.58
24302;BME280;12421;49.732;20.078;2023-02-21T23:33:31;96762.96;;;5.33;79.98
24302;BME280;12421;49.732;20.078;2023-02-21T23:43:36;96767.42;;;5.24;79.52
24302;BME280;12421;49.732;20.078;2023-02-21T23:53:40;96766.92;;;5.04;79.90
